Time;durP1;ratioP1;P1;durP2;ratioP2;P2;SDS_P1;SDS_P2;PMS_P1;PMS_P2;Temp;Humidity;BMP_temperature;BMP_pressure;BME280_temperature;BME280_humidity;BME280_pressure;Samples;Min_cycle;Max_cycle;Signal;HPM_P1;HPM_P2
2021/11/15 00:00:29;;;;;;;39.10;25.60;;;;;;;;;;4342406;32;20087;-73
2021/11/15 00:02:55;;;;;;;;;;;;;;;;;;4407710;32;20038;-74
2021/11/15 00:05:30;;;;;;;38.65;25.33;;;;;;;;;;4421390;32;19959;-74
2021/11/15 00:21:10;;;;;;;42.13;26.00;;;;;;;;;;4373951;32;20042;-73
2021/11/15 00:29:27;;;;;;;37.72;24.35;;;;;;;;;;4403184;32;19970;-73
2021/11/15 00:35:23;;;;;;;;;;;;;;;;;;;;;
2021/11/15 00:37:53;;;;;;;34.38;24.83;;;;;;;;;;4405665;32;20030;-74
2021/11/15 00:40:32;;;;;;;;;;;;;;;;;;;;;
2021/11/15 00:43:50;;;;;;;36.75;26.02;;;;;;;;;;4405714;32;20052;-74
2021/11/15 00:46:00;;;;;;;35.17;24.50;;;;;;;;;;4397299;32;20026;-73
2021/11/15 00:49:07;;;;;;;35.95;23.77;;;;;;;;;;4404618;32;20022;-74
2021/11/15 00:52:03;;;;;;;34.53;23.95;;;;;;;;;;4402209;32;20057;-73
2021/11/15 00:55:07;;;;;;;33.05;23.05;;;;;;;;;;4398967;32;20021;-74
2021/11/15 00:57:32;;;;;;;34.47;23.67;;;;;;;;;;4432096;32;20328;-73
2021/11/15 00:59:57;;;;;;;;;;;;;;;;;;4422281;32;20038;-73
2021/11/15 01:02:27;;;;;;;29.08;20.65;;;;;;;;;;4435771;32;20016;-73
2021/11/15 01:05:02;;;;;;;30.10;20.17;;;;;;;;;;4435178;32;20083;-74
2021/11/15 01:07:56;;;;;;;29.37;20.20;;;;;;;;;;4436125;32;20401;-73
2021/11/15 01:10:24;;;;;;;28.15;20.48;;;;;;;;;;4435761;32;20060;-73
2021/11/15 01:12:49;;;;;;;26.95;20.58;;;;;;;;;;4435976;32;20093;-73
2021/11/15 01:15:14;;;;;;;;;;;;;;;;;;4421843;32;20044;-73
2021/11/15 01:17:53;;;;;;;28.00;18.98;;;;;;;;;;4436112;32;20266;-73
2021/11/15 01:20:22;;;;;;;26.90;19.80;;;;;;;;;;4436062;32;20112;-73
2021/11/15 01:22:47;;;;;;;24.77;18.58;;;;;;;;;;4435810;32;20037;-74
2021/11/15 01:25:19;;;;;;;;;;;;;;;;;;4436121;32;20064;-74
2021/11/15 01:27:45;;;;;;;29.20;19.90;;;;;;;;;;4435470;32;19951;-73
2021/11/15 01:30:10;;;;;;;;;;;;;;;;;;4435743;32;20038;-73
2021/11/15 01:32:39;;;;;;;32.92;20.92;;;;;;;;;;4421961;32;19953;-73
2021/11/15 01:35:27;;;;;;;31.33;20.77;;;;;;;;;;4435200;32;20065;-73
2021/11/15 01:37:53;;;;;;;30.35;21.62;;;;;;;;;;4392947;32;20089;-73
2021/11/15 01:40:21;;;;;;;28.80;21.35;;;;;;;;;;4408429;32;20023;-73
2021/11/15 01:42:49;;;;;;;27.73;19.70;;;;;;;;;;4404300;32;20251;-73
2021/11/15 01:45:27;;;;;;;29.63;20.15;;;;;;;;;;4403814;32;20367;-73
2021/11/15 01:47:57;;;;;;;31.62;21.55;;;;;;;;;;4405168;32;20035;-73
2021/11/15 01:50:24;;;;;;;28.10;20.35;;;;;;;;;;4405651;32;20402;-73
2021/11/15 01:55:58;;;;;;;30.12;21.25;;;;;;;;;;4410596;32;20072;-74
2021/11/15 01:58:24;;;;;;;28.15;21.58;;;;;;;;;;4409692;32;20065;-73
2021/11/15 02:00:49;;;;;;;;;;;;;;;;;;4423191;32;20058;-74
2021/11/15 02:03:24;;;;;;;31.90;21.83;;;;;;;;;;4406371;32;19952;-73
2021/11/15 02:05:49;;;;;;;28.75;20.55;;;;;;;;;;4422861;32;20158;-73
2021/11/15 02:08:15;;;;;;;;;;;;;;;;;;4423321;32;20029;-73
2021/11/15 02:10:44;;;;;;;29.08;19.48;;;;;;;;;;4422917;32;19950;-73
2021/11/15 02:13:12;;;;;;;27.30;19.50;;;;;;;;;;4410361;32;20048;-73
2021/11/15 02:15:47;;;;;;;;;;;;;;;;;;;;;
2021/11/15 02:18:20;;;;;;;25.48;19.70;;;;;;;;;;4406238;32;20333;-73
2021/11/15 02:21:17;;;;;;;30.65;20.23;;;;;;;;;;4408002;32;20321;-73
2021/11/15 02:26:56;;;;;;;31.35;20.70;;;;;;;;;;4408554;32;20048;-73
2021/11/15 02:29:53;;;;;;;;;;;;;;;;;;;;;
2021/11/15 02:35:14;;;;;;;29.63;19.70;;;;;;;;;;4407693;32;20036;-73
2021/11/15 02:37:40;;;;;;;27.60;18.70;;;;;;;;;;4407552;32;20022;-73
2021/11/15 02:40:07;;;;;;;26.60;18.73;;;;;;;;;;4408313;32;20014;-73
2021/11/15 02:42:36;;;;;;;29.52;20.33;;;;;;;;;;4407922;32;20019;-73
2021/11/15 02:45:03;;;;;;;33.17;21.27;;;;;;;;;;4407599;32;20321;-73
2021/11/15 02:47:47;;;;;;;25.20;17.95;;;;;;;;;;4406950;32;20026;-73
2021/11/15 02:50:13;;;;;;;25.85;20.08;;;;;;;;;;4407758;32;20110;-72
2021/11/15 02:52:46;;;;;;;26.90;20.23;;;;;;;;;;4407650;32;20325;-73
2021/11/15 02:55:50;;;;;;;27.58;19.87;;;;;;;;;;4407774;32;20369;-73
2021/11/15 02:58:15;;;;;;;29.37;19.87;;;;;;;;;;4360263;32;20027;-73
2021/11/15 03:00:44;;;;;;;;;;;;;;;;;;4359874;32;20084;-73
2021/11/15 03:03:10;;;;;;;29.55;20.30;;;;;;;;;;4373426;32;19937;-73
2021/11/15 03:05:35;;;;;;;;;;;;;;;;;;4408071;32;20019;-73
2021/11/15 03:08:20;;;;;;;25.65;18.12;;;;;;;;;;4406860;32;19933;-74
2021/11/15 03:10:46;;;;;;;27.85;19.77;;;;;;;;;;4399550;32;20117;-73
2021/11/15 03:13:14;;;;;;;;;;;;;;;;;;4407506;32;20067;-73
2021/11/15 03:15:45;;;;;;;26.75;19.27;;;;;;;;;;4407953;32;19938;-73
2021/11/15 03:18:52;;;;;;;27.75;19.25;;;;;;;;;;4407351;32;20015;-73
2021/11/15 03:21:21;;;;;;;28.33;19.80;;;;;;;;;;4397789;32;20026;-73
2021/11/15 03:23:55;;;;;;;28.77;21.40;;;;;;;;;;4428946;32;20096;-73
2021/11/15 03:26:21;;;;;;;31.48;20.83;;;;;;;;;;4437854;32;20018;-73
2021/11/15 03:28:53;;;;;;;29.90;19.67;;;;;;;;;;4438064;32;20074;-73
2021/11/15 03:31:22;;;;;;;32.33;20.65;;;;;;;;;;4428033;32;20109;-73
2021/11/15 03:33:59;;;;;;;;;;;;;;;;;;;;;
2021/11/15 03:36:32;;;;;;;26.85;19.65;;;;;;;;;;4403420;32;20035;-73
2021/11/15 03:38:57;;;;;;;29.25;19.73;;;;;;;;;;4407101;32;20022;-74
2021/11/15 03:41:23;;;;;;;;;;;;;;;;;;4405686;32;20092;-73
2021/11/15 03:44:19;;;;;;;;;;;;;;;;;;;;;
2021/11/15 03:46:54;;;;;;;28.75;19.48;;;;;;;;;;4404163;32;20065;-73
2021/11/15 03:49:29;;;;;;;;;;;;;;;;;;;;;
2021/11/15 03:52:06;;;;;;;26.83;19.65;;;;;;;;;;4406979;32;20034;-73
2021/11/15 03:54:34;;;;;;;;;;;;;;;;;;4407712;32;20023;-73
2021/11/15 03:56:59;;;;;;;30.17;18.55;;;;;;;;;;4406295;32;19941;-73
2021/11/15 03:59:25;;;;;;;;;;;;;;;;;;4406656;32;20069;-73
2021/11/15 04:01:52;;;;;;;29.55;19.10;;;;;;;;;;4431493;32;19970;-73
2021/11/15 04:04:18;;;;;;;26.15;18.48;;;;;;;;;;4437159;32;20060;-73
2021/11/15 04:06:49;;;;;;;26.10;18.33;;;;;;;;;;4436718;32;20085;-73
2021/11/15 04:09:14;;;;;;;29.50;20.75;;;;;;;;;;4436343;32;20033;-73
2021/11/15 04:11:40;;;;;;;;;;;;;;;;;;4437116;32;20438;-73
2021/11/15 04:14:11;;;;;;;30.02;19.73;;;;;;;;;;4436773;32;20228;-73
2021/11/15 04:16:36;;;;;;;28.38;20.17;;;;;;;;;;4423027;32;20446;-73
2021/11/15 04:19:04;;;;;;;;;;;;;;;;;;4423099;32;20029;-73
2021/11/15 04:21:53;;;;;;;30.20;19.67;;;;;;;;;;4436538;32;19937;-73
2021/11/15 04:24:17;;;;;;;32.28;19.58;;;;;;;;;;4435808;32;20026;-73
2021/11/15 04:26:42;;;;;;;;;;;;;;;;;;4436931;32;20057;-73
2021/11/15 04:29:08;;;;;;;31.42;19.05;;;;;;;;;;4436566;32;19975;-73
2021/11/15 04:31:33;;;;;;;;;;;;;;;;;;4415018;32;20422;-73
2021/11/15 04:33:58;;;;;;;28.58;18.30;;;;;;;;;;4404861;32;19945;-73
2021/11/15 04:36:24;;;;;;;;;;;;;;;;;;4406883;32;20042;-73
2021/11/15 04:38:50;;;;;;;31.02;18.40;;;;;;;;;;4405474;32;20316;-73
2021/11/15 04:41:18;;;;;;;28.70;18.75;;;;;;;;;;4433167;32;20082;-72
2021/11/15 04:43:47;;;;;;;31.50;18.80;;;;;;;;;;4436185;32;20059;-73
2021/11/15 04:46:12;;;;;;;29.77;19.70;;;;;;;;;;4431242;32;20051;-73
2021/11/15 04:48:38;;;;;;;;;;;;;;;;;;4436104;32;20041;-73
2021/11/15 04:51:14;;;;;;;27.05;17.70;;;;;;;;;;4436224;32;19976;-72
2021/11/15 04:53:42;;;;;;;27.30;17.00;;;;;;;;;;4423059;32;20081;-73
2021/11/15 04:56:08;;;;;;;23.55;16.62;;;;;;;;;;4436242;32;20029;-73
2021/11/15 04:58:35;;;;;;;;;;;;;;;;;;4437008;32;20390;-73
2021/11/15 05:01:04;;;;;;;28.42;15.93;;;;;;;;;;4421446;32;19951;-73
2021/11/15 05:03:55;;;;;;;27.67;16.40;;;;;;;;;;4436107;32;20059;-73
2021/11/15 05:06:28;;;;;;;27.77;17.27;;;;;;;;;;4399533;32;20080;-73
2021/11/15 05:09:16;;;;;;;;;;;;;;;;;;;;;
2021/11/15 05:12:14;;;;;;;;;;;;;;;;;;;;;
2021/11/15 05:14:50;;;;;;;;;;;;;;;;;;;;;
2021/11/15 05:17:26;;;;;;;25.02;18.00;;;;;;;;;;4408970;32;20041;-73
2021/11/15 05:19:51;;;;;;;28.73;17.48;;;;;;;;;;4407086;32;20136;-73
2021/11/15 05:22:16;;;;;;;;;;;;;;;;;;4421487;32;20034;-73
2021/11/15 05:24:41;;;;;;;27.58;18.12;;;;;;;;;;4418806;32;19941;-73
2021/11/15 05:27:07;;;;;;;;;;;;;;;;;;4436009;32;20166;-73
2021/11/15 05:29:35;;;;;;;27.77;17.67;;;;;;;;;;4435473;32;19967;-73
2021/11/15 05:32:00;;;;;;;29.60;18.95;;;;;;;;;;4439328;32;20428;-72
2021/11/15 05:34:26;;;;;;;;;;;;;;;;;;4439031;32;20075;-73
2021/11/15 05:36:57;;;;;;;27.95;18.00;;;;;;;;;;4438758;32;19984;-73
2021/11/15 05:39:22;;;;;;;27.83;18.85;;;;;;;;;;4439082;32;20033;-72
2021/11/15 05:41:48;;;;;;;;;;;;;;;;;;4440627;32;20029;-73
2021/11/15 05:44:13;;;;;;;28.08;18.75;;;;;;;;;;4416840;32;19983;-73
2021/11/15 05:46:38;;;;;;;;;;;;;;;;;;4408097;32;20065;-73
2021/11/15 05:49:27;;;;;;;;;;;;;;;;;;;;;
2021/11/15 05:52:26;;;;;;;25.35;17.80;;;;;;;;;;4408281;32;20026;-74
2021/11/15 05:54:54;;;;;;;26.33;18.05;;;;;;;;;;4402931;32;20056;-74
2021/11/15 05:57:45;;;;;;;;;;;;;;;;;;;;;
2021/11/15 06:00:15;;;;;;;26.25;16.98;;;;;;;;;;4385396;32;20042;-74
2021/11/15 06:03:09;;;;;;;29.27;19.80;;;;;;;;;;4407235;32;20045;-74
2021/11/15 06:05:34;;;;;;;26.90;18.10;;;;;;;;;;4422038;32;20084;-72
2021/11/15 06:07:59;;;;;;;;;;;;;;;;;;4439085;32;20357;-73
2021/11/15 06:10:25;;;;;;;27.06;18.56;;;;;;;;;;4438003;32;19948;-72
2021/11/15 06:12:50;;;;;;;;;;;;;;;;;;4424682;32;20040;-72
2021/11/15 06:15:16;;;;;;;27.75;19.48;;;;;;;;;;4439028;32;19932;-72
2021/11/15 06:17:41;;;;;;;25.92;18.42;;;;;;;;;;4412598;32;20022;-73
2021/11/15 06:20:07;;;;;;;;;;;;;;;;;;4407630;32;20010;-73
2021/11/15 06:22:34;;;;;;;33.33;20.15;;;;;;;;;;4408008;32;20267;-73
2021/11/15 06:24:59;;;;;;;31.33;20.00;;;;;;;;;;4407957;32;20114;-74
2021/11/15 06:27:25;;;;;;;;;;;;;;;;;;4407815;32;20384;-75
2021/11/15 06:29:51;;;;;;;32.50;19.65;;;;;;;;;;4407603;32;20353;-76
2021/11/15 06:32:17;;;;;;;32.78;19.85;;;;;;;;;;4408219;32;20075;-74
2021/11/15 06:34:42;;;;;;;;;;;;;;;;;;4406957;32;20408;-75
2021/11/15 06:37:07;;;;;;;32.42;21.37;;;;;;;;;;4407997;32;20274;-74
2021/11/15 06:39:32;;;;;;;;;;;;;;;;;;4407939;32;20501;-73
2021/11/15 06:42:16;;;;;;;29.60;20.10;;;;;;;;;;4407975;32;19934;-73
2021/11/15 06:45:21;;;;;;;29.33;19.87;;;;;;;;;;4407869;32;20100;-73
2021/11/15 06:47:47;;;;;;;33.58;21.85;;;;;;;;;;4406918;32;20027;-73
2021/11/15 06:50:12;;;;;;;;;;;;;;;;;;4412252;32;20449;-73
2021/11/15 06:52:37;;;;;;;33.05;21.52;;;;;;;;;;4414507;32;19937;-73
2021/11/15 06:55:03;;;;;;;;;;;;;;;;;;4406646;32;20026;-73
2021/11/15 06:57:31;;;;;;;32.83;21.75;;;;;;;;;;4406729;32;19953;-74
2021/11/15 06:59:57;;;;;;;35.35;21.90;;;;;;;;;;4407487;32;20046;-73
2021/11/15 07:02:22;;;;;;;;;;;;;;;;;;4408013;32;20030;-75
2021/11/15 07:04:51;;;;;;;39.08;24.25;;;;;;;;;;4419389;32;19937;-74
2021/11/15 07:07:16;;;;;;;36.70;22.80;;;;;;;;;;4437663;32;20053;-73
2021/11/15 07:09:42;;;;;;;;;;;;;;;;;;4437533;32;20056;-73
2021/11/15 07:12:13;;;;;;;37.92;23.60;;;;;;;;;;4439383;32;19937;-73
2021/11/15 07:14:39;;;;;;;39.80;22.23;;;;;;;;;;4438088;32;20056;-74
2021/11/15 07:17:04;;;;;;;;;;;;;;;;;;4437186;32;20359;-74
2021/11/15 07:19:29;;;;;;;35.45;23.17;;;;;;;;;;4436743;32;20000;-73
2021/11/15 07:21:54;;;;;;;;;;;;;;;;;;4437880;32;20125;-73
2021/11/15 07:24:23;;;;;;;35.00;22.45;;;;;;;;;;4437009;32;19947;-74
2021/11/15 07:26:48;;;;;;;33.00;22.67;;;;;;;;;;4438188;32;20437;-73
2021/11/15 07:29:13;;;;;;;;;;;;;;;;;;4424785;32;20066;-73
2021/11/15 07:31:39;;;;;;;35.70;22.37;;;;;;;;;;4410682;32;20356;-74
2021/11/15 07:34:12;;;;;;;29.92;21.62;;;;;;;;;;4423597;32;20036;-72
2021/11/15 07:36:38;;;;;;;36.15;23.87;;;;;;;;;;4436920;32;20018;-74
2021/11/15 07:39:03;;;;;;;;;;;;;;;;;;4410113;32;20084;-74
2021/11/15 07:41:37;;;;;;;33.15;22.33;;;;;;;;;;4406764;32;19938;-74
2021/11/15 07:44:03;;;;;;;37.97;24.67;;;;;;;;;;4406592;32;20119;-73
2021/11/15 07:46:28;;;;;;;;;;;;;;;;;;4408685;32;20045;-72
2021/11/15 07:48:54;;;;;;;33.92;24.10;;;;;;;;;;4408740;32;20016;-72
2021/11/15 07:51:19;;;;;;;;;;;;;;;;;;4413601;32;20355;-73
2021/11/15 07:53:44;;;;;;;34.35;22.62;;;;;;;;;;4421392;32;19968;-73
2021/11/15 07:56:09;;;;;;;;;;;;;;;;;;4431231;32;20954;-74
2021/11/15 07:58:36;;;;;;;34.45;22.52;;;;;;;;;;4421414;32;19948;-73
2021/11/15 08:04:39;;;;;;;34.90;22.95;;;;;;;;;;4413275;32;20071;-72
2021/11/15 08:07:06;;;;;;;31.58;21.25;;;;;;;;;;4419903;32;20023;-74
2021/11/15 08:09:40;;;;;;;33.58;23.05;;;;;;;;;;4406368;32;20049;-74
2021/11/15 08:12:07;;;;;;;35.28;23.33;;;;;;;;;;4392475;32;20014;-74
2021/11/15 08:14:36;;;;;;;36.08;23.25;;;;;;;;;;4406578;32;20047;-73
2021/11/15 08:17:11;;;;;;;35.70;23.77;;;;;;;;;;4406171;32;20054;-73
2021/11/15 08:19:37;;;;;;;37.63;24.12;;;;;;;;;;4397501;32;20043;-73
2021/11/15 08:22:05;;;;;;;;;;;;;;;;;;4421309;32;20026;-73
2021/11/15 08:25:11;;;;;;;38.40;24.48;;;;;;;;;;4420079;32;20302;-73
2021/11/15 08:31:11;;;;;;;36.92;24.33;;;;;;;;;;4341911;33;20067;-73
2021/11/15 08:33:52;;;;;;;41.67;24.95;;;;;;;;;;4413190;32;20022;-73
2021/11/15 08:39:17;;;;;;;;;;;;;;;;;;;;;
2021/11/15 08:41:46;;;;;;;35.22;22.85;;;;;;;;;;4422959;32;20026;-73
2021/11/15 08:44:18;;;;;;;35.13;22.20;;;;;;;;;;4424114;32;20022;-73
2021/11/15 08:46:52;;;;;;;37.60;23.35;;;;;;;;;;4425914;32;20021;-73
2021/11/15 08:49:19;;;;;;;34.72;23.17;;;;;;;;;;4405096;32;20022;-72
2021/11/15 08:52:17;;;;;;;42.58;24.33;;;;;;;;;;4404340;32;20417;-72
2021/11/15 08:54:51;;;;;;;34.97;22.80;;;;;;;;;;4435668;32;20070;-73
2021/11/15 08:57:27;;;;;;;37.13;23.30;;;;;;;;;;4416829;32;20416;-72
2021/11/15 08:59:55;;;;;;;33.10;21.90;;;;;;;;;;4425560;32;20034;-72
2021/11/15 09:02:20;;;;;;;37.38;24.23;;;;;;;;;;4411564;32;20026;-72
2021/11/15 09:04:45;;;;;;;;;;;;;;;;;;4421077;32;20048;-72
2021/11/15 09:07:21;;;;;;;35.15;20.98;;;;;;;;;;4435877;32;19936;-72
2021/11/15 09:09:47;;;;;;;42.95;23.40;;;;;;;;;;4435964;32;20049;-72
2021/11/15 09:12:20;;;;;;;42.40;22.30;;;;;;;;;;4421928;32;20346;-73
2021/11/15 09:14:55;;;;;;;;;;;;;;;;;;;;;
2021/11/15 09:17:51;;;;;;;37.13;22.97;;;;;;;;;;4433274;32;20030;-72
2021/11/15 09:20:17;;;;;;;37.90;24.00;;;;;;;;;;4428915;32;20126;-72
2021/11/15 09:22:44;;;;;;;;;;;;;;;;;;4427396;32;20078;-73
2021/11/15 09:25:12;;;;;;;;;;;;;;;;;;4411277;32;19974;-73
2021/11/15 09:27:41;;;;;;;34.88;20.88;;;;;;;;;;4417314;32;19933;-72
2021/11/15 09:30:14;;;;;;;31.95;21.20;;;;;;;;;;4435070;32;20081;-73
2021/11/15 09:32:40;;;;;;;36.05;21.33;;;;;;;;;;4428996;32;20026;-73
2021/11/15 09:35:05;;;;;;;;;;;;;;;;;;4420749;32;20079;-71
2021/11/15 09:37:38;;;;;;;35.00;21.42;;;;;;;;;;4423012;32;19937;-72
2021/11/15 09:40:05;;;;;;;37.30;20.73;;;;;;;;;;4431064;32;20074;-72
2021/11/15 09:42:33;;;;;;;34.95;21.65;;;;;;;;;;4408904;32;20025;-72
2021/11/15 09:44:58;;;;;;;32.72;20.90;;;;;;;;;;4416498;32;20737;-72
2021/11/15 09:47:24;;;;;;;;;;;;;;;;;;4407058;32;20136;-71
2021/11/15 09:50:17;;;;;;;38.92;23.42;;;;;;;;;;4407677;32;19996;-73
2021/11/15 09:55:46;;;;;;;37.28;22.67;;;;;;;;;;4421552;32;20129;-71
2021/11/15 09:58:42;;;;;;;34.90;20.65;;;;;;;;;;4422748;32;20056;-72
2021/11/15 10:01:30;;;;;;;34.75;21.80;;;;;;;;;;4411723;32;20042;-72
2021/11/15 10:03:55;;;;;;;32.78;20.52;;;;;;;;;;4427611;32;20025;-72
2021/11/15 10:06:34;;;;;;;;;;;;;;;;;;;;;
2021/11/15 10:09:21;;;;;;;40.97;23.83;;;;;;;;;;4371765;32;19954;-72
2021/11/15 10:11:56;;;;;;;;;;;;;;;;;;;;;
2021/11/15 10:17:14;;;;;;;36.03;22.48;;;;;;;;;;4375645;32;20105;-72
2021/11/15 10:19:44;;;;;;;37.95;22.55;;;;;;;;;;4423061;32;20049;-72
2021/11/15 10:22:11;;;;;;;33.70;21.67;;;;;;;;;;4424052;32;20359;-73
2021/11/15 10:24:42;;;;;;;34.10;21.50;;;;;;;;;;4419049;32;20095;-73
2021/11/15 10:27:19;;;;;;;;;;;;;;;;;;;;;
2021/11/15 10:30:19;;;;;;;36.80;22.75;;;;;;;;;;4357108;32;20031;-73
2021/11/15 10:33:03;;;;;;;40.72;24.17;;;;;;;;;;4366340;32;20447;-68
2021/11/15 10:35:38;;;;;;;38.65;22.67;;;;;;;;;;4418288;32;20053;-74
2021/11/15 10:38:03;;;;;;;35.20;22.45;;;;;;;;;;4435819;32;20047;-72
2021/11/15 10:40:31;;;;;;;;;;;;;;;;;;4414125;32;20022;-72
2021/11/15 10:52:42;;;;;;;36.58;21.30;;;;;;;;;;4324793;33;20063;-72
2021/11/15 10:58:27;;;;;;;33.50;21.17;;;;;;;;;;4270974;33;20029;-72
2021/11/15 11:01:09;;;;;;;;;;;;;;;;;;;;;
2021/11/15 11:03:38;;;;;;;36.58;21.55;;;;;;;;;;4281805;33;20055;-72
2021/11/15 11:06:18;;;;;;;37.50;20.65;;;;;;;;;;4339024;32;20063;-71
2021/11/15 11:08:45;;;;;;;32.88;20.37;;;;;;;;;;4384756;32;20030;-72
2021/11/15 11:11:24;;;;;;;36.58;22.98;;;;;;;;;;4393303;32;20424;-72
2021/11/15 11:13:56;;;;;;;35.13;22.55;;;;;;;;;;4398446;32;20359;-72
2021/11/15 11:16:44;;;;;;;36.78;22.45;;;;;;;;;;4394614;32;20026;-72
2021/11/15 11:22:39;;;;;;;41.53;23.00;;;;;;;;;;4391621;32;20085;-73
2021/11/15 11:28:20;;;;;;;37.87;23.40;;;;;;;;;;4396944;32;20023;-72
2021/11/15 11:30:55;;;;;;;;;;;;;;;;;;;;;
2021/11/15 11:33:21;;;;;;;36.97;24.20;;;;;;;;;;4400190;32;20082;-74
2021/11/15 11:35:47;;;;;;;;;;;;;;;;;;4399389;32;20516;-73
2021/11/15 11:38:19;;;;;;;45.67;24.90;;;;;;;;;;4406106;32;19938;-73
2021/11/15 11:41:25;;;;;;;;;;;;;;;;;;;;;
2021/11/15 11:44:14;;;;;;;43.13;24.77;;;;;;;;;;4406026;32;20510;-73
2021/11/15 11:47:08;;;;;;;46.22;25.55;;;;;;;;;;4377639;32;20034;-73
2021/11/15 11:49:51;;;;;;;40.58;23.62;;;;;;;;;;4405311;32;20364;-72
2021/11/15 11:52:42;;;;;;;47.88;26.50;;;;;;;;;;4408020;32;20026;-72
2021/11/15 11:55:15;;;;;;;42.35;25.52;;;;;;;;;;4416742;32;20033;-73
2021/11/15 11:57:40;;;;;;;41.88;24.65;;;;;;;;;;4421263;32;20046;-73
2021/11/15 12:00:06;;;;;;;;;;;;;;;;;;4407117;32;20030;-71
2021/11/15 12:02:32;;;;;;;45.33;24.10;;;;;;;;;;4403813;32;20245;-73
2021/11/15 12:05:17;;;;;;;46.10;25.52;;;;;;;;;;4406060;32;20034;-72
2021/11/15 12:08:09;;;;;;;53.85;23.67;;;;;;;;;;4407683;32;20030;-72
2021/11/15 12:10:56;;;;;;;43.00;24.70;;;;;;;;;;4388575;32;20152;-74
2021/11/15 12:13:44;;;;;;;42.03;22.27;;;;;;;;;;4409548;32;20083;-72
2021/11/15 12:16:11;;;;;;;43.13;23.05;;;;;;;;;;4406348;32;20139;-71
2021/11/15 12:18:37;;;;;;;42.42;22.45;;;;;;;;;;4395740;32;20038;-73
2021/11/15 12:21:08;;;;;;;42.30;22.92;;;;;;;;;;4391418;32;20490;-72
2021/11/15 12:23:36;;;;;;;40.88;22.08;;;;;;;;;;4409551;32;20161;-73
2021/11/15 12:26:32;;;;;;;40.67;21.25;;;;;;;;;;4408919;32;20030;-71
2021/11/15 12:29:07;;;;;;;48.08;23.98;;;;;;;;;;4407196;32;20033;-73
2021/11/15 12:32:16;;;;;;;44.60;22.30;;;;;;;;;;4390789;32;20056;-74
2021/11/15 12:34:47;;;;;;;;;;;;;;;;;;4395824;32;20089;-73
2021/11/15 12:37:15;;;;;;;42.33;20.88;;;;;;;;;;4405399;32;19971;-73
2021/11/15 12:39:43;;;;;;;42.05;21.87;;;;;;;;;;4405395;32;20399;-73
2021/11/15 12:42:29;;;;;;;42.95;20.75;;;;;;;;;;4404798;32;20050;-72
2021/11/15 12:45:24;;;;;;;41.00;21.17;;;;;;;;;;4391567;32;20084;-73
2021/11/15 12:47:50;;;;;;;44.90;22.30;;;;;;;;;;4405401;32;20029;-73
2021/11/15 12:56:55;;;;;;;36.88;18.58;;;;;;;;;;4342879;33;20074;-73
2021/11/15 12:59:39;;;;;;;35.55;18.80;;;;;;;;;;4343353;32;20512;-73
2021/11/15 13:02:21;;;;;;;34.63;18.90;;;;;;;;;;4411979;32;20103;-73
2021/11/15 13:05:09;;;;;;;33.35;18.10;;;;;;;;;;4420412;32;20419;-74
2021/11/15 13:07:45;;;;;;;;;;;;;;;;;;;;;
2021/11/15 13:10:41;;;;;;;;;;;;;;;;;;;;;
2021/11/15 13:13:14;;;;;;;40.08;19.50;;;;;;;;;;4412986;32;20046;-73
2021/11/15 13:15:40;;;;;;;37.83;18.70;;;;;;;;;;4421479;32;20057;-72
2021/11/15 13:18:05;;;;;;;;;;;;;;;;;;4397070;32;20076;-73
2021/11/15 13:20:31;;;;;;;40.12;19.10;;;;;;;;;;4405724;32;19938;-73
2021/11/15 13:22:56;;;;;;;;;;;;;;;;;;4404804;32;20336;-74
2021/11/15 13:25:24;;;;;;;38.95;19.80;;;;;;;;;;4397963;32;20270;-73
2021/11/15 13:27:49;;;;;;;40.38;21.12;;;;;;;;;;4390449;32;20061;-72
2021/11/15 13:30:14;;;;;;;;;;;;;;;;;;4397745;32;20427;-74
2021/11/15 13:35:49;;;;;;;32.72;17.60;;;;;;;;;;4336585;33;20027;-73
2021/11/15 13:38:44;;;;;;;35.53;18.05;;;;;;;;;;4400931;32;20062;-72
2021/11/15 13:41:26;;;;;;;40.63;20.35;;;;;;;;;;4342888;33;20064;-73
2021/11/15 13:44:05;;;;;;;40.25;21.10;;;;;;;;;;4402018;32;20155;-74
2021/11/15 13:46:32;;;;;;;43.03;20.85;;;;;;;;;;4402861;32;20025;-74
2021/11/15 13:49:08;;;;;;;41.40;21.52;;;;;;;;;;4390597;32;20102;-73
2021/11/15 13:52:06;;;;;;;43.30;21.70;;;;;;;;;;4390819;32;20027;-73
2021/11/15 13:54:35;;;;;;;39.13;21.17;;;;;;;;;;4401846;32;20064;-72
2021/11/15 13:57:01;;;;;;;44.60;21.87;;;;;;;;;;4391647;32;20064;-74
2021/11/15 13:59:28;;;;;;;;;;;;;;;;;;4407040;32;20022;-72
2021/11/15 14:01:54;;;;;;;40.50;20.45;;;;;;;;;;4407750;32;19996;-73
2021/11/15 14:04:19;;;;;;;;;;;;;;;;;;4407909;32;20380;-72
2021/11/15 14:06:44;;;;;;;41.53;20.42;;;;;;;;;;4393930;32;20397;-73
2021/11/15 14:09:09;;;;;;;;;;;;;;;;;;4405347;32;20134;-72
2021/11/15 14:11:34;;;;;;;42.33;21.08;;;;;;;;;;4407788;32;19998;-72
2021/11/15 14:14:00;;;;;;;;;;;;;;;;;;4408096;32;20417;-73
2021/11/15 14:16:25;;;;;;;44.40;20.83;;;;;;;;;;4406954;32;19986;-72
2021/11/15 14:18:50;;;;;;;;;;;;;;;;;;4408433;32;20023;-72
2021/11/15 14:21:15;;;;;;;39.78;20.58;;;;;;;;;;4408984;32;19933;-72
2021/11/15 14:23:41;;;;;;;;;;;;;;;;;;4409839;32;20145;-72
2021/11/15 14:26:06;;;;;;;42.62;20.75;;;;;;;;;;4393016;32;19977;-72
2021/11/15 14:28:31;;;;;;;;;;;;;;;;;;4392836;32;20124;-74
2021/11/15 14:31:02;;;;;;;36.78;20.55;;;;;;;;;;4393741;32;20335;-73
2021/11/15 14:33:28;;;;;;;37.50;17.85;;;;;;;;;;4408984;32;20118;-73
2021/11/15 14:35:54;;;;;;;;;;;;;;;;;;4407427;32;20069;-72
2021/11/15 14:38:20;;;;;;;39.20;18.40;;;;;;;;;;4406578;32;19971;-73
2021/11/15 14:40:45;;;;;;;;;;;;;;;;;;4392720;32;20026;-72
2021/11/15 14:43:11;;;;;;;33.60;17.60;;;;;;;;;;4406726;32;19967;-72
2021/11/15 14:45:37;;;;;;;40.65;19.08;;;;;;;;;;4409003;32;20152;-73
2021/11/15 14:48:02;;;;;;;;;;;;;;;;;;4420997;32;20417;-73
2021/11/15 14:50:28;;;;;;;35.15;17.37;;;;;;;;;;4418926;32;19995;-73
2021/11/15 14:52:53;;;;;;;;;;;;;;;;;;4392365;32;20030;-73
2021/11/15 14:55:21;;;;;;;37.40;17.62;;;;;;;;;;4410805;32;19957;-73
2021/11/15 14:57:46;;;;;;;32.95;17.98;;;;;;;;;;4421986;32;20050;-72
2021/11/15 15:00:12;;;;;;;;;;;;;;;;;;4422085;32;20026;-73
2021/11/15 15:02:37;;;;;;;31.98;15.92;;;;;;;;;;4402648;32;19941;-72
2021/11/15 15:05:03;;;;;;;;;;;;;;;;;;4420766;32;20092;-73
2021/11/15 15:07:30;;;;;;;33.53;16.45;;;;;;;;;;4422099;32;19933;-72
2021/11/15 15:09:56;;;;;;;35.17;18.55;;;;;;;;;;4414794;32;20053;-73
2021/11/15 15:12:26;;;;;;;;;;;;;;;;;;4407424;32;20060;-72
2021/11/15 15:14:57;;;;;;;30.73;16.40;;;;;;;;;;4405321;32;20335;-73
2021/11/15 15:17:23;;;;;;;29.77;15.18;;;;;;;;;;4406229;32;20027;-74
2021/11/15 15:20:01;;;;;;;;;;;;;;;;;;4388586;32;20069;-72
2021/11/15 15:22:26;;;;;;;30.83;16.02;;;;;;;;;;4402075;32;20284;-74
2021/11/15 15:24:52;;;;;;;;;;;;;;;;;;4407511;32;20071;-73
2021/11/15 15:27:17;;;;;;;27.33;14.25;;;;;;;;;;4406770;32;19933;-73
2021/11/15 15:29:42;;;;;;;;;;;;;;;;;;4407349;32;20167;-72
2021/11/15 15:32:08;;;;;;;26.52;13.80;;;;;;;;;;4407766;32;20263;-72
2021/11/15 15:34:33;;;;;;;;;;;;;;;;;;4407254;32;20030;-73
2021/11/15 15:36:59;;;;;;;28.23;14.57;;;;;;;;;;4406455;32;19979;-72
2021/11/15 15:39:24;;;;;;;;;;;;;;;;;;4407233;32;20066;-72
2021/11/15 15:41:50;;;;;;;22.98;12.23;;;;;;;;;;4406205;32;19929;-72
2021/11/15 15:44:15;;;;;;;26.85;13.48;;;;;;;;;;4405456;32;20103;-72
2021/11/15 15:46:43;;;;;;;;;;;;;;;;;;4406512;32;20033;-72
2021/11/15 15:49:11;;;;;;;22.27;10.68;;;;;;;;;;4404269;32;19941;-73
2021/11/15 15:51:36;;;;;;;19.73;11.07;;;;;;;;;;4397739;32;20068;-73
2021/11/15 15:54:02;;;;;;;;;;;;;;;;;;4391690;32;20035;-73
2021/11/15 15:56:29;;;;;;;18.40;11.02;;;;;;;;;;4401605;32;20279;-73
2021/11/15 15:58:55;;;;;;;25.95;11.70;;;;;;;;;;4409405;32;20494;-74
2021/11/15 16:01:20;;;;;;;;;;;;;;;;;;4405624;32;20022;-72
2021/11/15 16:03:48;;;;;;;20.45;11.35;;;;;;;;;;4407253;32;19937;-73
2021/11/15 16:06:34;;;;;;;21.55;11.88;;;;;;;;;;4405855;32;20034;-74
2021/11/15 16:11:43;;;;;;;25.67;12.25;;;;;;;;;;4405523;32;20395;-73
2021/11/15 16:14:43;;;;;;;24.83;13.82;;;;;;;;;;4391882;32;20018;-72
2021/11/15 16:17:30;;;;;;;26.55;14.10;;;;;;;;;;4406447;32;20184;-72
2021/11/15 16:19:55;;;;;;;23.30;13.05;;;;;;;;;;4405783;32;20029;-72
2021/11/15 16:22:20;;;;;;;;;;;;;;;;;;4405992;32;20393;-73
2021/11/15 16:24:46;;;;;;;25.58;14.43;;;;;;;;;;4406312;32;19934;-72
2021/11/15 16:27:11;;;;;;;;;;;;;;;;;;4391967;32;20450;-72
2021/11/15 16:29:37;;;;;;;28.60;12.85;;;;;;;;;;4405372;32;20283;-74
2021/11/15 16:32:02;;;;;;;;;;;;;;;;;;4407800;32;20022;-73
2021/11/15 16:34:28;;;;;;;31.75;15.57;;;;;;;;;;4405921;32;19968;-73
2021/11/15 16:36:53;;;;;;;;;;;;;;;;;;4405400;32;20034;-73
2021/11/15 16:39:18;;;;;;;26.23;12.68;;;;;;;;;;4405423;32;19929;-73
2021/11/15 16:41:43;;;;;;;;;;;;;;;;;;4405453;32;20592;-74
2021/11/15 16:44:17;;;;;;;30.33;15.32;;;;;;;;;;4404399;32;20005;-72
2021/11/15 16:46:47;;;;;;;27.85;14.98;;;;;;;;;;4388636;32;20160;-73
2021/11/15 16:49:12;;;;;;;31.60;16.45;;;;;;;;;;4405771;32;20033;-73
2021/11/15 16:51:37;;;;;;;;;;;;;;;;;;4405192;32;20061;-72
2021/11/15 16:54:03;;;;;;;27.50;13.38;;;;;;;;;;4405692;32;19938;-72